sensor_id;sensor_type;location;lat;lon;timestamp;P1;durP1;ratioP1;P2;durP2;ratioP2
14143;SDS011;7152;48.348;10.980;2023-03-01T00:00:39;18.17;;;14.57;;
14143;SDS011;7152;48.348;10.980;2023-03-01T00:03:05;19.07;;;15.47;;
14143;SDS011;7152;48.348;10.980;2023-03-01T00:05:31;18.83;;;15.30;;
14143;SDS011;7152;48.348;10.980;2023-03-01T00:07:57;20.07;;;15.17;;
14143;SDS011;7152;48.348;10.980;2023-03-01T00:10:22;18.67;;;15.50;;
14143;SDS011;7152;48.348;10.980;2023-03-01T00:12:48;19.53;;;15.60;;
14143;SDS011;7152;48.348;10.980;2023-03-01T00:15:14;19.23;;;14.43;;
14143;SDS011;7152;48.348;10.980;2023-03-01T00:17:39;17.53;;;14.10;;
14143;SDS011;7152;48.348;10.980;2023-03-01T00:20:05;20.60;;;15.33;;
14143;SDS011;7152;48.348;10.980;2023-03-01T00:22:35;19.83;;;16.47;;
14143;SDS011;7152;48.348;10.980;2023-03-01T00:25:03;19.10;;;14.43;;
14143;SDS011;7152;48.348;10.980;2023-03-01T00:27:29;19.27;;;16.07;;
14143;SDS011;7152;48.348;10.980;2023-03-01T00:29:55;17.43;;;14.53;;
14143;SDS011;7152;48.348;10.980;2023-03-01T00:32:20;18.60;;;14.50;;
14143;SDS011;7152;48.348;10.980;2023-03-01T00:34:46;21.27;;;16.13;;
14143;SDS011;7152;48.348;10.980;2023-03-01T00:37:19;18.13;;;14.07;;
14143;SDS011;7152;48.348;10.980;2023-03-01T00:39:46;18.80;;;14.93;;
14143;SDS011;7152;48.348;10.980;2023-03-01T00:42:11;19.63;;;15.33;;
14143;SDS011;7152;48.348;10.980;2023-03-01T00:44:37;21.63;;;16.17;;
14143;SDS011;7152;48.348;10.980;2023-03-01T00:47:03;18.47;;;15.20;;
14143;SDS011;7152;48.348;10.980;2023-03-01T00:49:28;20.43;;;15.03;;
14143;SDS011;7152;48.348;10.980;2023-03-01T00:51:54;20.33;;;15.50;;
14143;SDS011;7152;48.348;10.980;2023-03-01T00:54:19;19.80;;;15.13;;
14143;SDS011;7152;48.348;10.980;2023-03-01T00:56:45;18.90;;;15.00;;
14143;SDS011;7152;48.348;10.980;2023-03-01T00:59:11;18.90;;;14.83;;
14143;SDS011;7152;48.348;10.980;2023-03-01T01:01:36;19.03;;;14.90;;
14143;SDS011;7152;48.348;10.980;2023-03-01T01:04:03;18.93;;;15.53;;
14143;SDS011;7152;48.348;10.980;2023-03-01T01:06:32;17.93;;;14.80;;
14143;SDS011;7152;48.348;10.980;2023-03-01T01:09:00;20.10;;;15.27;;
14143;SDS011;7152;48.348;10.980;2023-03-01T01:11:27;18.90;;;15.23;;
14143;SDS011;7152;48.348;10.980;2023-03-01T01:13:54;20.53;;;15.13;;
14143;SDS011;7152;48.348;10.980;2023-03-01T01:16:22;19.40;;;15.80;;
14143;SDS011;7152;48.348;10.980;2023-03-01T01:18:48;20.67;;;15.10;;
14143;SDS011;7152;48.348;10.980;2023-03-01T01:21:16;19.93;;;15.00;;
14143;SDS011;7152;48.348;10.980;2023-03-01T01:23:44;21.47;;;14.93;;
14143;SDS011;7152;48.348;10.980;2023-03-01T01:26:21;19.30;;;15.23;;
14143;SDS011;7152;48.348;10.980;2023-03-01T01:28:49;21.50;;;15.63;;
14143;SDS011;7152;48.348;10.980;2023-03-01T01:31:16;18.13;;;14.37;;
14143;SDS011;7152;48.348;10.980;2023-03-01T01:33:43;17.93;;;14.63;;
14143;SDS011;7152;48.348;10.980;2023-03-01T01:36:09;17.77;;;14.70;;
14143;SDS011;7152;48.348;10.980;2023-03-01T01:38:35;17.53;;;14.23;;
14143;SDS011;7152;48.348;10.980;2023-03-01T01:41:02;20.37;;;15.17;;
14143;SDS011;7152;48.348;10.980;2023-03-01T01:43:29;20.57;;;14.97;;
14143;SDS011;7152;48.348;10.980;2023-03-01T01:45:59;18.97;;;15.37;;
14143;SDS011;7152;48.348;10.980;2023-03-01T01:48:52;17.73;;;14.40;;
14143;SDS011;7152;48.348;10.980;2023-03-01T01:51:24;18.30;;;14.90;;
14143;SDS011;7152;48.348;10.980;2023-03-01T01:53:55;17.00;;;14.07;;
14143;SDS011;7152;48.348;10.980;2023-03-01T01:56:25;18.03;;;14.37;;
14143;SDS011;7152;48.348;10.980;2023-03-01T01:58:53;19.47;;;15.03;;
14143;SDS011;7152;48.348;10.980;2023-03-01T02:01:20;18.90;;;14.30;;
14143;SDS011;7152;48.348;10.980;2023-03-01T02:03:46;18.97;;;15.50;;
14143;SDS011;7152;48.348;10.980;2023-03-01T02:06:25;20.33;;;15.67;;
14143;SDS011;7152;48.348;10.980;2023-03-01T02:08:59;19.33;;;14.97;;
14143;SDS011;7152;48.348;10.980;2023-03-01T02:11:30;19.43;;;14.77;;
14143;SDS011;7152;48.348;10.980;2023-03-01T02:13:58;20.87;;;16.47;;
14143;SDS011;7152;48.348;10.980;2023-03-01T02:16:24;19.23;;;15.10;;
14143;SDS011;7152;48.348;10.980;2023-03-01T02:18:51;21.07;;;16.07;;
14143;SDS011;7152;48.348;10.980;2023-03-01T02:24:19;19.73;;;15.50;;
14143;SDS011;7152;48.348;10.980;2023-03-01T02:27:17;18.77;;;14.50;;
14143;SDS011;7152;48.348;10.980;2023-03-01T02:29:46;17.23;;;13.60;;
14143;SDS011;7152;48.348;10.980;2023-03-01T02:32:12;21.03;;;14.93;;
14143;SDS011;7152;48.348;10.980;2023-03-01T02:34:40;21.70;;;15.67;;
14143;SDS011;7152;48.348;10.980;2023-03-01T02:37:10;18.57;;;14.13;;
14143;SDS011;7152;48.348;10.980;2023-03-01T02:39:44;18.87;;;14.57;;
14143;SDS011;7152;48.348;10.980;2023-03-01T02:42:14;21.20;;;14.57;;
14143;SDS011;7152;48.348;10.980;2023-03-01T02:44:43;19.50;;;15.37;;
14143;SDS011;7152;48.348;10.980;2023-03-01T02:47:09;19.43;;;15.33;;
14143;SDS011;7152;48.348;10.980;2023-03-01T02:49:35;21.30;;;15.80;;
14143;SDS011;7152;48.348;10.980;2023-03-01T02:52:07;20.63;;;15.47;;
14143;SDS011;7152;48.348;10.980;2023-03-01T02:54:58;21.17;;;14.97;;
14143;SDS011;7152;48.348;10.980;2023-03-01T02:57:46;21.67;;;15.80;;
14143;SDS011;7152;48.348;10.980;2023-03-01T03:00:26;19.93;;;14.83;;
14143;SDS011;7152;48.348;10.980;2023-03-01T03:02:58;19.83;;;15.13;;
14143;SDS011;7152;48.348;10.980;2023-03-01T03:05:24;17.30;;;13.87;;
14143;SDS011;7152;48.348;10.980;2023-03-01T03:07:52;19.83;;;15.20;;
14143;SDS011;7152;48.348;10.980;2023-03-01T03:10:20;21.03;;;15.33;;
14143;SDS011;7152;48.348;10.980;2023-03-01T03:12:51;19.67;;;15.90;;
14143;SDS011;7152;48.348;10.980;2023-03-01T03:15:28;20.30;;;14.53;;
14143;SDS011;7152;48.348;10.980;2023-03-01T03:17:54;19.33;;;14.87;;
14143;SDS011;7152;48.348;10.980;2023-03-01T03:20:22;19.50;;;14.70;;
14143;SDS011;7152;48.348;10.980;2023-03-01T03:22:51;18.23;;;15.43;;
14143;SDS011;7152;48.348;10.980;2023-03-01T03:25:18;19.87;;;15.00;;
14143;SDS011;7152;48.348;10.980;2023-03-01T03:27:45;20.57;;;16.73;;
14143;SDS011;7152;48.348;10.980;2023-03-01T03:30:16;19.43;;;15.90;;
14143;SDS011;7152;48.348;10.980;2023-03-01T03:32:43;19.70;;;14.67;;
14143;SDS011;7152;48.348;10.980;2023-03-01T03:35:18;19.03;;;15.10;;
14143;SDS011;7152;48.348;10.980;2023-03-01T03:37:48;21.37;;;14.90;;
14143;SDS011;7152;48.348;10.980;2023-03-01T03:40:40;20.73;;;15.30;;
14143;SDS011;7152;48.348;10.980;2023-03-01T03:43:09;22.13;;;15.80;;
14143;SDS011;7152;48.348;10.980;2023-03-01T03:45:37;23.00;;;15.33;;
14143;SDS011;7152;48.348;10.980;2023-03-01T03:48:03;23.37;;;15.90;;
14143;SDS011;7152;48.348;10.980;2023-03-01T03:50:31;18.20;;;13.80;;
14143;SDS011;7152;48.348;10.980;2023-03-01T03:52:57;20.67;;;15.83;;
14143;SDS011;7152;48.348;10.980;2023-03-01T03:55:25;19.40;;;14.57;;
14143;SDS011;7152;48.348;10.980;2023-03-01T03:57:55;20.03;;;15.43;;
14143;SDS011;7152;48.348;10.980;2023-03-01T04:00:23;18.83;;;14.93;;
14143;SDS011;7152;48.348;10.980;2023-03-01T04:02:49;21.57;;;15.27;;
14143;SDS011;7152;48.348;10.980;2023-03-01T04:05:16;21.70;;;15.33;;
14143;SDS011;7152;48.348;10.980;2023-03-01T04:07:43;19.30;;;15.80;;
14143;SDS011;7152;48.348;10.980;2023-03-01T04:10:10;18.90;;;14.57;;
14143;SDS011;7152;48.348;10.980;2023-03-01T04:12:38;18.70;;;14.87;;
14143;SDS011;7152;48.348;10.980;2023-03-01T04:15:04;20.37;;;15.37;;
14143;SDS011;7152;48.348;10.980;2023-03-01T04:17:41;19.80;;;15.20;;
14143;SDS011;7152;48.348;10.980;2023-03-01T04:20:09;18.60;;;14.67;;
14143;SDS011;7152;48.348;10.980;2023-03-01T04:22:42;19.37;;;15.07;;
14143;SDS011;7152;48.348;10.980;2023-03-01T04:25:08;18.40;;;15.07;;
14143;SDS011;7152;48.348;10.980;2023-03-01T04:27:34;22.17;;;15.80;;
14143;SDS011;7152;48.348;10.980;2023-03-01T04:30:01;20.53;;;15.10;;
14143;SDS011;7152;48.348;10.980;2023-03-01T04:32:28;18.47;;;15.20;;
14143;SDS011;7152;48.348;10.980;2023-03-01T04:34:54;18.23;;;14.77;;
14143;SDS011;7152;48.348;10.980;2023-03-01T04:37:19;19.80;;;15.77;;
14143;SDS011;7152;48.348;10.980;2023-03-01T04:39:45;19.97;;;16.07;;
14143;SDS011;7152;48.348;10.980;2023-03-01T04:42:12;20.57;;;15.97;;
14143;SDS011;7152;48.348;10.980;2023-03-01T04:44:38;20.03;;;15.63;;
14143;SDS011;7152;48.348;10.980;2023-03-01T04:47:04;21.43;;;16.17;;
14143;SDS011;7152;48.348;10.980;2023-03-01T04:49:30;21.23;;;16.03;;
14143;SDS011;7152;48.348;10.980;2023-03-01T04:51:56;22.07;;;15.50;;
14143;SDS011;7152;48.348;10.980;2023-03-01T04:54:30;23.43;;;16.20;;
14143;SDS011;7152;48.348;10.980;2023-03-01T04:56:57;22.83;;;17.03;;
14143;SDS011;7152;48.348;10.980;2023-03-01T04:59:23;19.17;;;15.43;;
14143;SDS011;7152;48.348;10.980;2023-03-01T05:01:49;21.93;;;15.63;;
14143;SDS011;7152;48.348;10.980;2023-03-01T05:04:15;20.10;;;14.30;;
14143;SDS011;7152;48.348;10.980;2023-03-01T05:06:41;19.43;;;15.20;;
14143;SDS011;7152;48.348;10.980;2023-03-01T05:09:06;20.63;;;15.73;;
14143;SDS011;7152;48.348;10.980;2023-03-01T05:11:32;23.27;;;15.93;;
14143;SDS011;7152;48.348;10.980;2023-03-01T05:14:01;23.17;;;17.37;;
14143;SDS011;7152;48.348;10.980;2023-03-01T05:16:27;21.03;;;15.17;;
14143;SDS011;7152;48.348;10.980;2023-03-01T05:18:53;21.37;;;15.70;;
14143;SDS011;7152;48.348;10.980;2023-03-01T05:21:20;21.97;;;15.43;;
14143;SDS011;7152;48.348;10.980;2023-03-01T05:23:46;22.03;;;15.73;;
14143;SDS011;7152;48.348;10.980;2023-03-01T05:26:12;22.03;;;14.63;;
14143;SDS011;7152;48.348;10.980;2023-03-01T05:28:39;23.13;;;16.27;;
14143;SDS011;7152;48.348;10.980;2023-03-01T05:31:05;20.07;;;14.57;;
14143;SDS011;7152;48.348;10.980;2023-03-01T05:33:34;22.17;;;14.67;;
14143;SDS011;7152;48.348;10.980;2023-03-01T05:36:05;22.60;;;15.87;;
14143;SDS011;7152;48.348;10.980;2023-03-01T05:38:32;20.67;;;15.43;;
14143;SDS011;7152;48.348;10.980;2023-03-01T05:40:58;23.17;;;16.73;;
14143;SDS011;7152;48.348;10.980;2023-03-01T05:43:23;22.30;;;15.97;;
14143;SDS011;7152;48.348;10.980;2023-03-01T05:45:49;25.87;;;16.77;;
14143;SDS011;7152;48.348;10.980;2023-03-01T05:48:15;22.73;;;15.43;;
14143;SDS011;7152;48.348;10.980;2023-03-01T05:50:42;21.57;;;15.27;;
14143;SDS011;7152;48.348;10.980;2023-03-01T05:53:13;21.57;;;16.17;;
14143;SDS011;7152;48.348;10.980;2023-03-01T05:55:41;24.37;;;15.57;;
14143;SDS011;7152;48.348;10.980;2023-03-01T05:58:12;24.70;;;16.37;;
14143;SDS011;7152;48.348;10.980;2023-03-01T06:00:39;21.73;;;15.10;;
14143;SDS011;7152;48.348;10.980;2023-03-01T06:03:05;23.60;;;15.73;;
14143;SDS011;7152;48.348;10.980;2023-03-01T06:05:31;21.20;;;15.67;;
14143;SDS011;7152;48.348;10.980;2023-03-01T06:08:00;20.53;;;15.37;;
14143;SDS011;7152;48.348;10.980;2023-03-01T06:10:26;22.93;;;15.90;;
14143;SDS011;7152;48.348;10.980;2023-03-01T06:12:51;21.77;;;15.43;;
14143;SDS011;7152;48.348;10.980;2023-03-01T06:15:18;21.77;;;14.40;;
14143;SDS011;7152;48.348;10.980;2023-03-01T06:17:44;22.67;;;15.83;;
14143;SDS011;7152;48.348;10.980;2023-03-01T06:22:42;21.97;;;16.17;;
14143;SDS011;7152;48.348;10.980;2023-03-01T06:25:08;20.60;;;14.63;;
14143;SDS011;7152;48.348;10.980;2023-03-01T06:27:35;20.93;;;15.87;;
14143;SDS011;7152;48.348;10.980;2023-03-01T06:30:01;23.17;;;17.13;;
14143;SDS011;7152;48.348;10.980;2023-03-01T06:32:27;26.67;;;15.77;;
14143;SDS011;7152;48.348;10.980;2023-03-01T06:34:53;22.77;;;16.00;;
14143;SDS011;7152;48.348;10.980;2023-03-01T06:37:19;21.73;;;15.83;;
14143;SDS011;7152;48.348;10.980;2023-03-01T06:39:44;25.80;;;16.97;;
14143;SDS011;7152;48.348;10.980;2023-03-01T06:42:10;22.27;;;16.60;;
14143;SDS011;7152;48.348;10.980;2023-03-01T06:44:36;22.03;;;16.07;;
14143;SDS011;7152;48.348;10.980;2023-03-01T06:47:02;24.07;;;16.77;;
14143;SDS011;7152;48.348;10.980;2023-03-01T06:49:28;24.33;;;16.27;;
14143;SDS011;7152;48.348;10.980;2023-03-01T06:51:55;25.40;;;18.07;;
14143;SDS011;7152;48.348;10.980;2023-03-01T06:54:21;24.50;;;17.87;;
14143;SDS011;7152;48.348;10.980;2023-03-01T06:56:47;24.47;;;17.73;;
14143;SDS011;7152;48.348;10.980;2023-03-01T06:59:14;22.93;;;17.13;;
14143;SDS011;7152;48.348;10.980;2023-03-01T07:01:40;22.60;;;16.53;;
14143;SDS011;7152;48.348;10.980;2023-03-01T07:04:05;23.47;;;15.93;;
14143;SDS011;7152;48.348;10.980;2023-03-01T07:06:31;23.20;;;17.47;;
14143;SDS011;7152;48.348;10.980;2023-03-01T07:08:57;25.53;;;17.27;;
14143;SDS011;7152;48.348;10.980;2023-03-01T07:11:22;21.43;;;17.00;;
14143;SDS011;7152;48.348;10.980;2023-03-01T07:13:48;22.43;;;17.73;;
14143;SDS011;7152;48.348;10.980;2023-03-01T07:16:13;20.87;;;16.33;;
14143;SDS011;7152;48.348;10.980;2023-03-01T07:18:39;21.97;;;16.87;;
14143;SDS011;7152;48.348;10.980;2023-03-01T07:21:06;25.13;;;17.97;;
14143;SDS011;7152;48.348;10.980;2023-03-01T07:23:37;26.20;;;18.23;;
14143;SDS011;7152;48.348;10.980;2023-03-01T07:26:03;23.33;;;17.90;;
14143;SDS011;7152;48.348;10.980;2023-03-01T07:28:28;22.23;;;16.57;;
14143;SDS011;7152;48.348;10.980;2023-03-01T07:30:55;22.23;;;17.53;;
14143;SDS011;7152;48.348;10.980;2023-03-01T07:33:26;22.23;;;16.47;;
14143;SDS011;7152;48.348;10.980;2023-03-01T07:35:58;20.60;;;17.23;;
14143;SDS011;7152;48.348;10.980;2023-03-01T07:38:25;21.37;;;16.10;;
14143;SDS011;7152;48.348;10.980;2023-03-01T07:40:52;22.90;;;17.13;;
14143;SDS011;7152;48.348;10.980;2023-03-01T07:43:18;20.83;;;16.57;;
14143;SDS011;7152;48.348;10.980;2023-03-01T07:45:44;20.53;;;16.10;;
14143;SDS011;7152;48.348;10.980;2023-03-01T07:48:10;20.40;;;15.77;;
14143;SDS011;7152;48.348;10.980;2023-03-01T07:50:35;23.57;;;16.93;;
14143;SDS011;7152;48.348;10.980;2023-03-01T07:53:01;21.17;;;16.33;;
14143;SDS011;7152;48.348;10.980;2023-03-01T07:55:27;21.27;;;17.03;;
14143;SDS011;7152;48.348;10.980;2023-03-01T07:57:53;20.33;;;15.90;;
14143;SDS011;7152;48.348;10.980;2023-03-01T08:00:19;21.40;;;16.00;;
14143;SDS011;7152;48.348;10.980;2023-03-01T08:02:44;19.47;;;15.90;;
14143;SDS011;7152;48.348;10.980;2023-03-01T08:05:10;21.20;;;15.93;;
14143;SDS011;7152;48.348;10.980;2023-03-01T08:07:36;18.10;;;16.00;;
14143;SDS011;7152;48.348;10.980;2023-03-01T08:10:02;24.00;;;16.23;;
14143;SDS011;7152;48.348;10.980;2023-03-01T08:12:28;20.63;;;15.77;;
14143;SDS011;7152;48.348;10.980;2023-03-01T08:14:53;20.17;;;15.20;;
14143;SDS011;7152;48.348;10.980;2023-03-01T08:17:19;24.23;;;15.60;;
14143;SDS011;7152;48.348;10.980;2023-03-01T08:19:45;19.20;;;15.57;;
14143;SDS011;7152;48.348;10.980;2023-03-01T08:22:11;23.30;;;16.70;;
14143;SDS011;7152;48.348;10.980;2023-03-01T08:24:36;19.87;;;14.73;;
14143;SDS011;7152;48.348;10.980;2023-03-01T08:27:02;20.73;;;15.67;;
14143;SDS011;7152;48.348;10.980;2023-03-01T08:29:30;19.70;;;15.43;;
14143;SDS011;7152;48.348;10.980;2023-03-01T08:31:56;20.83;;;16.80;;
14143;SDS011;7152;48.348;10.980;2023-03-01T08:34:22;20.37;;;15.87;;
14143;SDS011;7152;48.348;10.980;2023-03-01T08:36:47;21.00;;;15.17;;
14143;SDS011;7152;48.348;10.980;2023-03-01T08:39:15;20.37;;;16.23;;
14143;SDS011;7152;48.348;10.980;2023-03-01T08:41:41;19.43;;;16.60;;
14143;SDS011;7152;48.348;10.980;2023-03-01T08:44:09;21.67;;;17.03;;
14143;SDS011;7152;48.348;10.980;2023-03-01T08:46:37;20.70;;;16.50;;
14143;SDS011;7152;48.348;10.980;2023-03-01T08:49:09;21.07;;;16.57;;
14143;SDS011;7152;48.348;10.980;2023-03-01T08:51:37;20.67;;;16.03;;
14143;SDS011;7152;48.348;10.980;2023-03-01T08:54:04;20.93;;;16.77;;
14143;SDS011;7152;48.348;10.980;2023-03-01T08:56:30;19.57;;;15.80;;
14143;SDS011;7152;48.348;10.980;2023-03-01T08:58:56;23.27;;;17.27;;
14143;SDS011;7152;48.348;10.980;2023-03-01T09:01:21;20.73;;;16.67;;
14143;SDS011;7152;48.348;10.980;2023-03-01T09:03:47;19.87;;;15.80;;
14143;SDS011;7152;48.348;10.980;2023-03-01T09:06:13;20.90;;;16.63;;
14143;SDS011;7152;48.348;10.980;2023-03-01T09:08:40;20.43;;;16.00;;
14143;SDS011;7152;48.348;10.980;2023-03-01T09:11:08;23.13;;;16.23;;
14143;SDS011;7152;48.348;10.980;2023-03-01T09:13:35;19.23;;;15.63;;
14143;SDS011;7152;48.348;10.980;2023-03-01T09:16:04;21.20;;;16.40;;
14143;SDS011;7152;48.348;10.980;2023-03-01T09:18:31;19.30;;;16.07;;
14143;SDS011;7152;48.348;10.980;2023-03-01T09:21:05;20.93;;;16.70;;
14143;SDS011;7152;48.348;10.980;2023-03-01T09:23:36;19.50;;;16.20;;
14143;SDS011;7152;48.348;10.980;2023-03-01T09:26:04;21.37;;;16.00;;
14143;SDS011;7152;48.348;10.980;2023-03-01T09:28:30;21.90;;;16.37;;
14143;SDS011;7152;48.348;10.980;2023-03-01T09:30:59;19.97;;;16.00;;
14143;SDS011;7152;48.348;10.980;2023-03-01T09:33:25;22.47;;;18.33;;
14143;SDS011;7152;48.348;10.980;2023-03-01T09:35:56;20.97;;;16.77;;
14143;SDS011;7152;48.348;10.980;2023-03-01T09:38:25;21.07;;;17.37;;
14143;SDS011;7152;48.348;10.980;2023-03-01T09:40:51;23.60;;;18.10;;
14143;SDS011;7152;48.348;10.980;2023-03-01T09:46:03;21.97;;;16.63;;
14143;SDS011;7152;48.348;10.980;2023-03-01T09:48:43;21.27;;;16.87;;
14143;SDS011;7152;48.348;10.980;2023-03-01T09:51:24;19.93;;;16.43;;
14143;SDS011;7152;48.348;10.980;2023-03-01T09:53:56;20.60;;;16.07;;
14143;SDS011;7152;48.348;10.980;2023-03-01T10:04:41;21.37;;;16.63;;
14143;SDS011;7152;48.348;10.980;2023-03-01T10:09:46;22.13;;;17.57;;
14143;SDS011;7152;48.348;10.980;2023-03-01T10:12:14;21.90;;;17.37;;
14143;SDS011;7152;48.348;10.980;2023-03-01T10:17:41;22.13;;;17.37;;
14143;SDS011;7152;48.348;10.980;2023-03-01T10:20:19;22.17;;;16.80;;
14143;SDS011;7152;48.348;10.980;2023-03-01T10:22:50;22.30;;;16.53;;
14143;SDS011;7152;48.348;10.980;2023-03-01T10:28:10;20.30;;;16.63;;
14143;SDS011;7152;48.348;10.980;2023-03-01T10:30:51;21.03;;;16.80;;
14143;SDS011;7152;48.348;10.980;2023-03-01T10:33:21;20.53;;;16.33;;
14143;SDS011;7152;48.348;10.980;2023-03-01T10:35:52;22.17;;;18.53;;
14143;SDS011;7152;48.348;10.980;2023-03-01T10:38:19;21.10;;;17.53;;
14143;SDS011;7152;48.348;10.980;2023-03-01T10:43:16;25.63;;;17.40;;
14143;SDS011;7152;48.348;10.980;2023-03-01T10:45:42;20.87;;;16.53;;
14143;SDS011;7152;48.348;10.980;2023-03-01T10:50:33;23.10;;;18.03;;
14143;SDS011;7152;48.348;10.980;2023-03-01T10:53:00;20.80;;;17.37;;
14143;SDS011;7152;48.348;10.980;2023-03-01T10:55:35;22.10;;;18.13;;
14143;SDS011;7152;48.348;10.980;2023-03-01T10:58:06;20.50;;;16.20;;
14143;SDS011;7152;48.348;10.980;2023-03-01T11:03:12;20.80;;;16.90;;
14143;SDS011;7152;48.348;10.980;2023-03-01T11:05:50;21.13;;;16.40;;
14143;SDS011;7152;48.348;10.980;2023-03-01T11:08:38;21.33;;;18.20;;
14143;SDS011;7152;48.348;10.980;2023-03-01T11:14:00;20.37;;;16.70;;
14143;SDS011;7152;48.348;10.980;2023-03-01T11:16:40;21.20;;;16.37;;
14143;SDS011;7152;48.348;10.980;2023-03-01T11:21:34;19.57;;;16.30;;
14143;SDS011;7152;48.348;10.980;2023-03-01T11:24:06;19.97;;;16.37;;
14143;SDS011;7152;48.348;10.980;2023-03-01T11:26:38;19.93;;;16.57;;
14143;SDS011;7152;48.348;10.980;2023-03-01T11:29:10;21.37;;;16.80;;
14143;SDS011;7152;48.348;10.980;2023-03-01T11:31:42;22.50;;;16.80;;
14143;SDS011;7152;48.348;10.980;2023-03-01T11:34:14;19.67;;;16.20;;
14143;SDS011;7152;48.348;10.980;2023-03-01T11:36:52;19.17;;;15.53;;
14143;SDS011;7152;48.348;10.980;2023-03-01T11:39:25;20.03;;;15.77;;
14143;SDS011;7152;48.348;10.980;2023-03-01T11:42:38;18.37;;;15.80;;
14143;SDS011;7152;48.348;10.980;2023-03-01T11:44:47;19.33;;;16.60;;
14143;SDS011;7152;48.348;10.980;2023-03-01T11:50:14;19.70;;;16.90;;
14143;SDS011;7152;48.348;10.980;2023-03-01T11:58:34;21.90;;;17.03;;
14143;SDS011;7152;48.348;10.980;2023-03-01T12:01:31;21.10;;;16.63;;
14143;SDS011;7152;48.348;10.980;2023-03-01T12:04:37;20.50;;;16.90;;
14143;SDS011;7152;48.348;10.980;2023-03-01T12:21:09;19.37;;;17.27;;
14143;SDS011;7152;48.348;10.980;2023-03-01T12:24:16;20.27;;;16.50;;
14143;SDS011;7152;48.348;10.980;2023-03-01T12:26:53;18.83;;;16.80;;
14143;SDS011;7152;48.348;10.980;2023-03-01T12:29:37;18.93;;;16.93;;
14143;SDS011;7152;48.348;10.980;2023-03-01T12:41:16;17.87;;;15.90;;
14143;SDS011;7152;48.348;10.980;2023-03-01T12:43:53;17.93;;;16.03;;
14143;SDS011;7152;48.348;10.980;2023-03-01T12:49:43;16.27;;;14.57;;
14143;SDS011;7152;48.348;10.980;2023-03-01T12:52:47;17.67;;;15.77;;
14143;SDS011;7152;48.348;10.980;2023-03-01T12:55:28;18.03;;;16.13;;
14143;SDS011;7152;48.348;10.980;2023-03-01T12:58:15;17.93;;;16.10;;
14143;SDS011;7152;48.348;10.980;2023-03-01T13:03:48;17.80;;;15.87;;
14143;SDS011;7152;48.348;10.980;2023-03-01T13:15:42;18.30;;;16.40;;
14143;SDS011;7152;48.348;10.980;2023-03-01T13:31:00;17.10;;;15.30;;
14143;SDS011;7152;48.348;10.980;2023-03-01T13:35:59;16.10;;;14.50;;
14143;SDS011;7152;48.348;10.980;2023-03-01T13:38:39;16.00;;;14.40;;
14143;SDS011;7152;48.348;10.980;2023-03-01T13:41:09;16.43;;;14.73;;
14143;SDS011;7152;48.348;10.980;2023-03-01T13:43:36;15.40;;;14.00;;
14143;SDS011;7152;48.348;10.980;2023-03-01T13:46:15;15.97;;;14.30;;
14143;SDS011;7152;48.348;10.980;2023-03-01T13:48:45;16.37;;;14.77;;
14143;SDS011;7152;48.348;10.980;2023-03-01T13:51:20;15.73;;;14.13;;
14143;SDS011;7152;48.348;10.980;2023-03-01T13:53:51;15.80;;;14.27;;
14143;SDS011;7152;48.348;10.980;2023-03-01T13:56:19;14.63;;;13.33;;
14143;SDS011;7152;48.348;10.980;2023-03-01T13:58:53;15.47;;;13.97;;
14143;SDS011;7152;48.348;10.980;2023-03-01T14:01:51;16.47;;;14.97;;
14143;SDS011;7152;48.348;10.980;2023-03-01T14:06:50;16.27;;;14.57;;
14143;SDS011;7152;48.348;10.980;2023-03-01T14:09:23;17.00;;;15.23;;
14143;SDS011;7152;48.348;10.980;2023-03-01T14:14:52;15.50;;;14.10;;
14143;SDS011;7152;48.348;10.980;2023-03-01T14:20:23;15.40;;;13.90;;
14143;SDS011;7152;48.348;10.980;2023-03-01T14:22:55;16.03;;;14.43;;
14143;SDS011;7152;48.348;10.980;2023-03-01T14:25:30;15.07;;;13.67;;
14143;SDS011;7152;48.348;10.980;2023-03-01T14:27:59;14.47;;;13.13;;
14143;SDS011;7152;48.348;10.980;2023-03-01T14:30:33;15.67;;;14.17;;
14143;SDS011;7152;48.348;10.980;2023-03-01T14:33:03;15.20;;;13.73;;
14143;SDS011;7152;48.348;10.980;2023-03-01T14:35:33;15.63;;;14.07;;
14143;SDS011;7152;48.348;10.980;2023-03-01T14:38:00;15.57;;;13.97;;
14143;SDS011;7152;48.348;10.980;2023-03-01T14:40:31;16.20;;;14.60;;
14143;SDS011;7152;48.348;10.980;2023-03-01T14:42:59;15.83;;;14.20;;
14143;SDS011;7152;48.348;10.980;2023-03-01T14:45:27;15.27;;;13.77;;
14143;SDS011;7152;48.348;10.980;2023-03-01T14:47:54;16.20;;;14.70;;
14143;SDS011;7152;48.348;10.980;2023-03-01T14:50:25;15.40;;;13.87;;
14143;SDS011;7152;48.348;10.980;2023-03-01T14:52:54;16.23;;;14.60;;
14143;SDS011;7152;48.348;10.980;2023-03-01T14:57:58;15.73;;;14.03;;
14143;SDS011;7152;48.348;10.980;2023-03-01T15:00:27;15.73;;;14.13;;
14143;SDS011;7152;48.348;10.980;2023-03-01T15:02:55;15.57;;;13.97;;
14143;SDS011;7152;48.348;10.980;2023-03-01T15:05:27;15.83;;;14.33;;
14143;SDS011;7152;48.348;10.980;2023-03-01T15:07:56;16.50;;;14.70;;
14143;SDS011;7152;48.348;10.980;2023-03-01T15:10:25;16.73;;;15.03;;
14143;SDS011;7152;48.348;10.980;2023-03-01T15:12:52;16.77;;;14.53;;
14143;SDS011;7152;48.348;10.980;2023-03-01T15:15:19;16.20;;;14.17;;
14143;SDS011;7152;48.348;10.980;2023-03-01T15:17:52;15.17;;;13.60;;
14143;SDS011;7152;48.348;10.980;2023-03-01T15:20:20;15.60;;;14.00;;
14143;SDS011;7152;48.348;10.980;2023-03-01T15:22:50;15.00;;;13.43;;
14143;SDS011;7152;48.348;10.980;2023-03-01T15:25:17;17.77;;;13.93;;
14143;SDS011;7152;48.348;10.980;2023-03-01T15:27:45;17.37;;;13.97;;
14143;SDS011;7152;48.348;10.980;2023-03-01T15:30:18;18.33;;;15.23;;
14143;SDS011;7152;48.348;10.980;2023-03-01T15:32:48;15.80;;;14.20;;
14143;SDS011;7152;48.348;10.980;2023-03-01T15:35:33;17.37;;;14.10;;
14143;SDS011;7152;48.348;10.980;2023-03-01T15:40:55;16.07;;;14.33;;
14143;SDS011;7152;48.348;10.980;2023-03-01T15:43:39;17.33;;;14.10;;
14143;SDS011;7152;48.348;10.980;2023-03-01T15:46:17;15.90;;;14.17;;
14143;SDS011;7152;48.348;10.980;2023-03-01T15:48:47;15.63;;;13.73;;
14143;SDS011;7152;48.348;10.980;2023-03-01T15:51:17;16.17;;;13.37;;
14143;SDS011;7152;48.348;10.980;2023-03-01T15:53:48;16.83;;;13.77;;
14143;SDS011;7152;48.348;10.980;2023-03-01T15:56:16;15.93;;;13.97;;
14143;SDS011;7152;48.348;10.980;2023-03-01T15:58:42;15.20;;;13.33;;
14143;SDS011;7152;48.348;10.980;2023-03-01T16:01:16;15.53;;;13.73;;
14143;SDS011;7152;48.348;10.980;2023-03-01T16:03:42;16.33;;;13.93;;
14143;SDS011;7152;48.348;10.980;2023-03-01T16:06:09;16.40;;;14.10;;
14143;SDS011;7152;48.348;10.980;2023-03-01T16:08:36;17.67;;;14.40;;
14143;SDS011;7152;48.348;10.980;2023-03-01T16:11:03;18.23;;;14.70;;
14143;SDS011;7152;48.348;10.980;2023-03-01T16:13:31;16.87;;;13.77;;
14143;SDS011;7152;48.348;10.980;2023-03-01T16:15:57;16.70;;;13.67;;
14143;SDS011;7152;48.348;10.980;2023-03-01T16:18:23;18.07;;;14.73;;
14143;SDS011;7152;48.348;10.980;2023-03-01T16:20:49;16.47;;;13.67;;
14143;SDS011;7152;48.348;10.980;2023-03-01T16:23:15;17.40;;;14.60;;
14143;SDS011;7152;48.348;10.980;2023-03-01T16:25:40;18.63;;;14.40;;
14143;SDS011;7152;48.348;10.980;2023-03-01T16:28:06;20.57;;;15.37;;